Time;durP1;ratioP1;P1;durP2;ratioP2;P2;SDS_P1;SDS_P2;PMS_P1;PMS_P2;Temp;Humidity;BMP_temperature;BMP_pressure;BME280_temperature;BME280_humidity;BME280_pressure;Samples;Min_cycle;Max_cycle;Signal;HPM_P1;HPM_P2
2022/07/24 00:00:41;;;;;;;18.30;15.53;;;;;;;19.46;76.35;97297.45;1802608;78;27956;-79
2022/07/24 00:03:10;;;;;;;17.27;14.87;;;;;;;19.40;76.39;97300.75;1802208;79;25673;-80
2022/07/24 00:05:36;;;;;;;17.42;15.68;;;;;;;19.39;76.45;97310.05;1802575;79;25740;-80
2022/07/24 00:08:04;;;;;;;17.05;15.35;;;;;;;19.40;76.46;97314.43;1802291;79;25800;-79
2022/07/24 00:10:31;;;;;;;16.95;15.25;;;;;;;19.41;76.47;97320.73;1802654;79;26460;-80
2022/07/24 00:12:57;;;;;;;17.12;14.53;;;;;;;19.42;76.47;97316.90;1802457;79;28154;-79
2022/07/24 00:15:24;;;;;;;18.85;14.95;;;;;;;19.42;76.45;97319.64;1802529;79;25617;-79
2022/07/24 00:17:50;;;;;;;19.55;15.88;;;;;;;19.43;76.51;97313.08;1802654;79;25653;-80
2022/07/24 00:20:17;;;;;;;17.75;15.83;;;;;;;19.40;76.56;97302.11;1802555;79;25688;-79
2022/07/24 00:22:43;;;;;;;17.77;15.78;;;;;;;19.42;76.56;97304.58;1802571;79;25401;-79
2022/07/24 00:25:10;;;;;;;18.57;16.60;;;;;;;19.42;76.69;97300.48;1804859;78;27436;-79
2022/07/24 00:27:37;;;;;;;17.55;15.83;;;;;;;19.42;76.66;97303.22;1836482;78;25759;-79
2022/07/24 00:30:04;;;;;;;19.25;16.62;;;;;;;19.43;76.66;97308.97;1836998;78;25704;-79
2022/07/24 00:32:31;;;;;;;18.27;16.40;;;;;;;19.43;76.67;97307.59;1836753;78;25743;-79
2022/07/24 00:34:58;;;;;;;17.23;15.63;;;;;;;19.40;76.72;97305.39;1836757;78;25700;-79
2022/07/24 00:37:24;;;;;;;17.80;14.78;;;;;;;19.42;76.74;97318.27;1836955;78;26796;-79
2022/07/24 00:39:51;;;;;;;18.23;16.40;;;;;;;19.44;76.68;97316.09;1836705;78;25834;-79
2022/07/24 00:42:18;;;;;;;18.15;16.27;;;;;;;19.43;76.73;97315.27;1836800;78;25689;-79
2022/07/24 00:44:44;;;;;;;18.17;16.07;;;;;;;19.42;76.74;97311.42;1836875;78;25699;-79
2022/07/24 00:47:11;;;;;;;18.00;16.12;;;;;;;19.42;76.80;97313.62;1836905;78;25654;-79
2022/07/24 00:49:37;;;;;;;18.23;15.95;;;;;;;19.43;76.78;97311.70;1836912;78;27402;-79
2022/07/24 00:52:04;;;;;;;17.73;15.85;;;;;;;19.42;76.82;97305.95;1836577;77;25655;-79
2022/07/24 00:54:31;;;;;;;21.37;16.25;;;;;;;19.43;76.84;97299.39;1836946;78;25250;-79
2022/07/24 00:56:58;;;;;;;16.57;14.75;;;;;;;19.45;76.87;97290.33;1836768;78;25736;-79
2022/07/24 00:59:24;;;;;;;17.82;15.30;;;;;;;19.44;76.91;97289.51;1836947;77;25167;-79
2022/07/24 01:01:52;;;;;;;16.82;15.13;;;;;;;19.45;76.93;97291.70;1836823;77;27350;-79
2022/07/24 01:04:19;;;;;;;18.92;16.02;;;;;;;19.45;77.03;97291.70;1836661;78;25860;-79
2022/07/24 01:06:46;;;;;;;17.35;15.65;;;;;;;19.40;77.05;97291.16;1836638;78;25665;-79
2022/07/24 01:09:14;;;;;;;16.95;15.35;;;;;;;19.42;77.05;97290.90;1836811;78;25677;-79
2022/07/24 01:11:41;;;;;;;17.85;16.15;;;;;;;19.42;76.99;97284.05;1836848;78;25404;-79
2022/07/24 01:14:11;;;;;;;18.27;16.27;;;;;;;19.43;76.97;97285.70;1836762;78;27577;-78
2022/07/24 01:16:37;;;;;;;21.52;16.17;;;;;;;19.45;76.90;97283.48;1836843;78;25645;-79
2022/07/24 01:19:04;;;;;;;17.82;15.93;;;;;;;19.44;76.91;97281.30;1836772;77;25676;-79
2022/07/24 01:21:31;;;;;;;18.32;16.15;;;;;;;19.47;77.00;97284.05;1836824;78;25679;-79
2022/07/24 01:23:57;;;;;;;18.50;15.38;;;;;;;19.47;77.00;97281.31;1836812;78;25752;-79
2022/07/24 01:26:24;;;;;;;16.97;15.18;;;;;;;19.46;77.02;97287.05;1838974;77;28040;-79
2022/07/24 01:28:51;;;;;;;18.30;14.83;;;;;;;19.44;77.05;97289.51;1841683;77;25822;-79
2022/07/24 01:31:17;;;;;;;19.00;16.27;;;;;;;19.43;77.13;97292.55;1841792;77;25712;-79
2022/07/24 01:33:44;;;;;;;17.27;15.43;;;;;;;19.39;77.18;97298.27;1842008;77;26255;-79
2022/07/24 01:36:10;;;;;;;17.62;15.83;;;;;;;19.38;77.25;97302.09;1842087;77;25669;-78
2022/07/24 01:38:37;;;;;;;17.32;15.28;;;;;;;19.40;77.28;97293.08;1841697;77;28106;-79
2022/07/24 01:41:04;;;;;;;17.23;15.38;;;;;;;19.39;77.33;97292.25;1841895;77;25669;-79
2022/07/24 01:43:31;;;;;;;17.17;15.48;;;;;;;19.40;77.33;97294.45;1841815;77;25785;-79
2022/07/24 01:45:57;;;;;;;17.07;15.43;;;;;;;19.42;77.39;97291.72;1841962;77;26291;-79
2022/07/24 01:48:24;;;;;;;18.15;16.05;;;;;;;19.39;77.50;97287.33;1842015;77;25594;-79
2022/07/24 01:50:50;;;;;;;18.67;15.43;;;;;;;19.40;77.54;97290.34;1841820;77;27584;-79
2022/07/24 01:53:17;;;;;;;16.73;14.80;;;;;;;19.39;77.53;97285.95;1841496;77;25393;-78
2022/07/24 01:55:43;;;;;;;16.97;15.18;;;;;;;19.39;77.47;97290.06;1842142;77;25724;-79
2022/07/24 01:58:10;;;;;;;16.73;15.03;;;;;;;19.41;77.49;97285.14;1841910;77;25664;-79
2022/07/24 02:00:36;;;;;;;17.50;15.23;;;;;;;19.42;77.55;97292.27;1841952;77;25424;-79
2022/07/24 02:03:03;;;;;;;16.50;14.80;;;;;;;19.42;77.52;97284.05;1841952;77;27353;-79
2022/07/24 02:05:31;;;;;;;19.40;15.23;;;;;;;19.43;77.47;97283.79;1841954;77;25202;-79
2022/07/24 02:08:00;;;;;;;19.85;15.45;;;;;;;19.44;77.48;97283.24;1842010;77;25779;-79
2022/07/24 02:10:29;;;;;;;17.70;15.98;;;;;;;19.45;77.53;97284.86;1841923;77;25684;-78
2022/07/24 02:12:56;;;;;;;19.05;16.00;;;;;;;19.41;77.60;97281.04;1841784;77;25763;-79
2022/07/24 02:15:23;;;;;;;17.65;15.40;;;;;;;19.38;77.74;97293.89;1841896;77;27359;-79
2022/07/24 02:17:53;;;;;;;20.70;16.17;;;;;;;19.32;77.77;97292.25;1841934;77;25676;-79
2022/07/24 02:20:20;;;;;;;16.82;14.85;;;;;;;19.31;77.97;97301.55;1841852;77;25246;-79
2022/07/24 02:22:47;;;;;;;17.57;15.65;;;;;;;19.26;78.01;97298.78;1842308;77;26389;-78
2022/07/24 02:25:14;;;;;;;17.85;16.15;;;;;;;19.27;78.08;97299.89;1841952;77;25775;-78
2022/07/24 02:27:42;;;;;;;18.37;15.83;;;;;;;19.29;78.06;97298.25;1841617;77;27435;-78
2022/07/24 02:30:14;;;;;;;17.50;15.80;;;;;;;19.32;78.15;97296.35;1841871;77;25423;-78
2022/07/24 02:32:41;;;;;;;17.73;16.00;;;;;;;19.29;78.20;97295.52;1773557;80;25726;-78
2022/07/24 02:35:08;;;;;;;16.67;15.05;;;;;;;19.31;78.25;97301.55;1719192;83;26467;-78
2022/07/24 02:37:40;;;;;;;19.65;16.00;;;;;;;19.31;78.23;97304.28;1719177;83;25489;-78
2022/07/24 02:40:09;;;;;;;17.23;15.53;;;;;;;19.33;78.26;97313.02;1719099;82;27439;-78
2022/07/24 02:42:37;;;;;;;17.48;15.60;;;;;;;19.34;78.37;97311.94;1718912;83;26038;-79
2022/07/24 02:45:06;;;;;;;18.55;16.67;;;;;;;19.35;78.38;97308.11;1719058;82;25299;-79
2022/07/24 02:47:32;;;;;;;22.30;18.82;;;;;;;19.36;78.33;97318.78;1719126;83;25849;-78
2022/07/24 02:49:59;;;;;;;19.30;17.50;;;;;;;19.38;78.36;97319.89;1719201;83;25775;-79
2022/07/24 02:52:26;;;;;;;19.85;17.87;;;;;;;19.38;78.40;97319.89;1718991;82;27999;-78
2022/07/24 02:54:52;;;;;;;23.47;19.65;;;;;;;19.38;78.40;97319.89;1718722;83;25766;-78
2022/07/24 02:57:19;;;;;;;24.60;20.02;;;;;;;19.41;78.41;97323.47;1719223;83;25738;-78
2022/07/24 02:59:49;;;;;;;22.05;19.48;;;;;;;19.43;78.42;97322.66;1719087;82;26244;-78
2022/07/24 03:02:14;;;;;;;25.65;22.95;;;;;;;19.43;78.44;97330.86;1769747;80;25774;-78
2022/07/24 03:04:40;;;;;;;27.00;24.10;;;;;;;19.44;78.38;97332.52;1773720;80;27343;-78
2022/07/24 03:07:07;;;;;;;25.35;22.75;;;;;;;19.46;78.38;97331.67;1773482;80;25486;-78
2022/07/24 03:09:33;;;;;;;27.82;24.30;;;;;;;19.48;78.31;97340.44;1773527;80;25701;-78
2022/07/24 03:12:00;;;;;;;26.68;23.87;;;;;;;19.49;78.31;97344.86;1773590;80;25735;-79
2022/07/24 03:14:26;;;;;;;30.37;23.80;;;;;;;19.50;78.34;97345.69;1773566;80;25649;-78
2022/07/24 03:16:53;;;;;;;28.12;24.20;;;;;;;19.50;78.35;97336.92;1773751;80;27448;-78
2022/07/24 03:19:19;;;;;;;28.92;26.12;;;;;;;19.49;78.55;97340.75;1773580;80;25723;-79
2022/07/24 03:21:46;;;;;;;29.92;26.42;;;;;;;19.46;78.60;97347.27;1773330;80;25696;-78
2022/07/24 03:24:13;;;;;;;32.98;29.52;;;;;;;19.43;78.67;97348.66;1773516;80;25796;-79
2022/07/24 03:26:39;;;;;;;36.65;29.50;;;;;;;19.45;78.65;97354.66;1775600;80;25707;-79
2022/07/24 03:29:06;;;;;;;35.20;31.40;;;;;;;19.49;78.65;97357.72;1801208;77;27375;-78
2022/07/24 03:31:32;;;;;;;38.15;33.13;;;;;;;19.51;78.61;97358.28;1848003;77;25736;-79
2022/07/24 03:33:59;;;;;;;39.92;35.73;;;;;;;19.53;78.58;97359.66;1847951;77;25661;-78
2022/07/24 03:36:25;;;;;;;44.00;38.15;;;;;;;19.54;78.60;97364.05;1848100;77;25658;-78
2022/07/24 03:38:52;;;;;;;47.17;38.35;;;;;;;19.56;78.57;97368.69;1847935;77;25720;-79
2022/07/24 03:41:18;;;;;;;45.30;39.83;;;;;;;19.56;78.70;97370.05;1847886;77;27352;-77
2022/07/24 03:43:46;;;;;;;50.65;42.93;;;;;;;19.56;78.70;97361.84;1847642;76;42883;-76
2022/07/24 03:46:12;;;;;;;54.45;45.83;;;;;;;19.58;78.77;97365.13;1847701;77;25642;-78
2022/07/24 03:48:39;;;;;;;51.50;45.48;;;;;;;19.55;78.84;97368.44;1848273;77;25674;-77
2022/07/24 03:51:05;;;;;;;56.25;47.98;;;;;;;19.55;78.76;97369.80;1848114;77;25399;-77
2022/07/24 03:53:32;;;;;;;54.67;48.63;;;;;;;19.54;78.76;97372.27;1847775;77;28164;-76
2022/07/24 03:55:59;;;;;;;55.88;49.73;;;;;;;19.53;78.98;97378.83;1847735;77;25783;-77
2022/07/24 03:58:25;;;;;;;52.40;46.68;;;;;;;19.51;79.04;97382.38;1847990;77;25720;-77
2022/07/24 04:00:52;;;;;;;52.50;46.70;;;;;;;19.49;78.96;97388.66;1848001;77;25716;-77
2022/07/24 04:03:18;;;;;;;50.70;45.25;;;;;;;19.50;79.02;97390.31;1847995;77;25653;-77
2022/07/24 04:05:45;;;;;;;51.35;44.48;;;;;;;19.48;78.95;97395.73;1848015;77;27423;-77
2022/07/24 04:08:11;;;;;;;48.05;42.85;;;;;;;19.47;78.89;97397.65;1847774;77;25462;-76
2022/07/24 04:10:38;;;;;;;39.27;35.08;;;;;;;19.45;78.80;97403.94;1847918;77;25703;-76
2022/07/24 04:13:05;;;;;;;39.78;34.80;;;;;;;19.44;78.73;97405.05;1847874;77;25708;-76
2022/07/24 04:15:31;;;;;;;35.58;31.77;;;;;;;19.37;78.66;97409.94;1847956;77;25723;-76
2022/07/24 04:17:58;;;;;;;32.83;29.32;;;;;;;19.28;78.59;97401.97;1847954;77;27424;-76
2022/07/24 04:20:24;;;;;;;31.12;27.77;;;;;;;19.18;78.57;97412.86;1847587;77;25677;-76
2022/07/24 04:22:51;;;;;;;28.83;25.82;;;;;;;19.10;78.54;97409.25;1847951;77;26463;-77
2022/07/24 04:25:18;;;;;;;31.97;28.57;;;;;;;19.08;78.47;97411.45;1847803;77;25731;-76
2022/07/24 04:27:45;;;;;;;30.23;26.82;;;;;;;19.08;78.46;97416.34;1846155;77;25735;-76
2022/07/24 04:30:12;;;;;;;31.12;27.93;;;;;;;19.08;78.47;97410.33;1845317;77;27554;-76
2022/07/24 04:32:39;;;;;;;31.93;27.60;;;;;;;19.10;78.37;97410.61;1845476;77;25686;-76
2022/07/24 04:35:08;;;;;;;34.25;28.45;;;;;;;19.14;78.30;97417.21;1845412;77;25194;-76
2022/07/24 04:37:35;;;;;;;32.33;28.92;;;;;;;19.14;78.29;97417.21;1845488;77;25750;-76
2022/07/24 04:40:01;;;;;;;30.20;26.97;;;;;;;19.15;78.20;97421.05;1845657;77;25608;-76
2022/07/24 04:42:28;;;;;;;31.57;28.17;;;;;;;19.19;78.11;97422.19;1845593;77;27424;-76
2022/07/24 04:44:54;;;;;;;31.73;28.42;;;;;;;19.22;78.03;97431.20;1845342;77;25449;-76
2022/07/24 04:47:21;;;;;;;32.73;29.10;;;;;;;19.27;77.98;97429.05;1845657;77;25715;-76
2022/07/24 04:49:47;;;;;;;32.70;29.12;;;;;;;19.32;77.87;97427.72;1845508;77;25820;-76
2022/07/24 04:52:14;;;;;;;31.65;28.47;;;;;;;19.36;77.79;97426.07;1845552;77;25620;-76
2022/07/24 04:54:40;;;;;;;36.85;31.50;;;;;;;19.40;77.79;97425.83;1845486;77;27439;-77
2022/07/24 04:57:07;;;;;;;36.10;30.68;;;;;;;19.43;77.67;97423.94;1845585;77;25446;-76
2022/07/24 04:59:33;;;;;;;33.70;30.10;;;;;;;19.46;77.61;97423.92;1845640;77;25626;-77
2022/07/24 05:02:00;;;;;;;37.13;31.50;;;;;;;19.48;77.55;97426.67;1845599;77;25878;-77
2022/07/24 05:04:27;;;;;;;31.48;28.17;;;;;;;19.50;77.52;97425.08;1845350;77;25775;-77
2022/07/24 05:06:53;;;;;;;32.25;29.02;;;;;;;19.49;77.48;97428.90;1845558;77;28192;-78
2022/07/24 05:09:20;;;;;;;31.60;27.70;;;;;;;19.47;77.20;97425.56;1845389;77;25757;-77
2022/07/24 05:11:47;;;;;;;31.30;28.07;;;;;;;19.44;77.15;97432.42;1845565;77;25646;-78
2022/07/24 05:14:13;;;;;;;32.00;28.23;;;;;;;19.43;77.20;97433.52;1845227;77;26508;-78
2022/07/24 05:16:40;;;;;;;30.30;27.10;;;;;;;19.42;77.09;97441.45;1845564;77;25945;-77
2022/07/24 05:19:06;;;;;;;28.95;26.00;;;;;;;19.43;77.08;97447.20;1845495;77;28132;-77
2022/07/24 05:21:33;;;;;;;26.60;23.75;;;;;;;19.44;77.06;97444.17;1845332;77;25805;-77
2022/07/24 05:24:01;;;;;;;25.50;22.52;;;;;;;19.46;76.87;97446.64;1845514;77;25755;-78
2022/07/24 05:26:31;;;;;;;24.95;21.87;;;;;;;19.44;76.78;97457.06;1845685;77;25770;-78
2022/07/24 05:29:01;;;;;;;19.85;17.70;;;;;;;19.42;76.56;97458.69;1845565;77;25685;-78
2022/07/24 05:31:28;;;;;;;19.05;17.12;;;;;;;19.40;76.26;97458.13;1782458;80;28211;-77
2022/07/24 05:33:54;;;;;;;19.52;17.62;;;;;;;19.40;75.92;97460.05;1766527;81;25638;-77
2022/07/24 05:36:21;;;;;;;20.72;18.50;;;;;;;19.39;75.67;97460.59;1766751;81;25732;-77
2022/07/24 05:38:48;;;;;;;23.85;18.82;;;;;;;19.38;75.89;97459.48;1782639;80;25788;-78
2022/07/24 05:41:14;;;;;;;22.27;19.12;;;;;;;19.40;75.76;97461.41;1766714;81;25765;-76
2022/07/24 05:43:41;;;;;;;22.52;19.48;;;;;;;19.40;75.61;97469.63;1766914;81;27351;-77
2022/07/24 05:46:07;;;;;;;22.22;19.95;;;;;;;19.36;75.62;97468.50;1782619;80;25518;-77
2022/07/24 05:48:34;;;;;;;22.05;18.62;;;;;;;19.34;75.81;97463.83;1766778;81;26913;-76
2022/07/24 05:51:01;;;;;;;20.48;18.42;;;;;;;19.36;75.77;97472.06;1766813;81;25837;-78
2022/07/24 05:53:28;;;;;;;19.20;16.95;;;;;;;19.39;75.67;97469.34;1782486;80;25721;-77
2022/07/24 05:55:54;;;;;;;21.97;17.90;;;;;;;19.42;75.48;97475.66;1766492;81;27401;-76
2022/07/24 05:58:21;;;;;;;18.35;16.23;;;;;;;19.42;75.48;97478.40;1766598;81;25799;-77
2022/07/24 06:00:47;;;;;;;19.45;16.97;;;;;;;19.48;75.61;97483.34;1782700;80;25677;-77
2022/07/24 06:03:14;;;;;;;16.93;15.20;;;;;;;19.54;75.21;97481.77;1766906;81;26427;-79
2022/07/24 06:05:41;;;;;;;19.10;14.90;;;;;;;19.55;75.01;97486.70;1766739;81;25846;-77
2022/07/24 06:08:08;;;;;;;15.53;13.83;;;;;;;19.55;74.40;97486.70;1782782;80;26982;-78
2022/07/24 06:10:35;;;;;;;17.82;14.38;;;;;;;19.53;74.24;97485.59;1766747;81;25699;-78
2022/07/24 06:13:01;;;;;;;16.27;13.58;;;;;;;19.53;73.95;97497.92;1782652;80;25863;-78
2022/07/24 06:15:29;;;;;;;13.62;12.23;;;;;;;19.51;73.68;97493.80;1766566;81;25926;-77
2022/07/24 06:17:55;;;;;;;15.75;12.50;;;;;;;19.51;73.48;97494.63;1766784;81;25723;-78
2022/07/24 06:20:22;;;;;;;18.80;13.15;;;;;;;19.54;73.39;97500.94;1782523;80;27461;-76
2022/07/24 06:22:49;;;;;;;14.30;12.10;;;;;;;19.58;73.26;97495.73;1766638;81;25780;-77
2022/07/24 06:25:17;;;;;;;13.28;11.75;;;;;;;19.58;73.05;97497.93;1766832;81;25885;-76
2022/07/24 06:27:48;;;;;;;13.35;11.95;;;;;;;19.57;72.88;97494.08;1799333;77;25808;-76
2022/07/24 06:30:25;;;;;;;13.72;12.33;;;;;;;19.59;72.86;97499.58;1782576;80;25751;-77
2022/07/24 06:32:54;;;;;;;14.38;11.45;;;;;;;19.62;72.79;97501.79;1766665;81;27396;-77
2022/07/24 06:35:21;;;;;;;11.50;10.15;;;;;;;19.64;72.52;97499.61;1766574;81;25842;-77
2022/07/24 06:37:48;;;;;;;12.07;10.23;;;;;;;19.70;72.21;97501.81;1782670;80;25701;-77
2022/07/24 06:40:17;;;;;;;13.58;9.70;;;;;;;19.76;71.92;97503.50;1766886;81;25777;-77
2022/07/24 06:42:44;;;;;;;16.45;9.75;;;;;;;19.84;71.69;97499.41;1766696;81;25927;-77
2022/07/24 06:45:11;;;;;;;11.40;10.30;;;;;;;19.88;71.55;97506.83;1782664;80;27417;-77
2022/07/24 06:47:39;;;;;;;11.25;9.93;;;;;;;19.88;71.78;97503.27;1766437;81;25432;-77
2022/07/24 06:50:06;;;;;;;11.00;9.88;;;;;;;19.89;71.39;97498.07;1766856;81;25740;-76
2022/07/24 06:52:32;;;;;;;10.32;8.48;;;;;;;19.91;71.15;97502.73;1782492;80;25923;-77
2022/07/24 06:54:59;;;;;;;10.78;8.78;;;;;;;19.96;71.07;97502.20;1766330;81;25414;-76
2022/07/24 06:57:26;;;;;;;11.95;8.68;;;;;;;20.04;70.61;97502.23;1782672;80;27345;-76
2022/07/24 06:59:53;;;;;;;8.93;8.03;;;;;;;20.09;70.26;97503.06;1766809;81;25738;-77
2022/07/24 07:02:21;;;;;;;9.55;7.92;;;;;;;20.12;69.73;97508.01;1782899;80;25873;-80
2022/07/24 07:04:48;;;;;;;12.15;7.90;;;;;;;20.16;69.44;97508.30;1766922;81;25893;-77
2022/07/24 07:07:15;;;;;;;8.78;7.10;;;;;;;20.22;68.76;97508.58;1782899;80;25703;-77
2022/07/24 07:09:43;;;;;;;9.13;6.47;;;;;;;20.26;68.52;97511.06;1766757;81;27331;-78
2022/07/24 07:12:10;;;;;;;7.87;7.08;;;;;;;20.31;68.74;97509.69;1782731;80;25290;-77
2022/07/24 07:14:37;;;;;;;11.30;7.03;;;;;;;20.37;68.84;97508.64;1766828;81;25719;-77
2022/07/24 07:17:04;;;;;;;8.10;6.70;;;;;;;20.45;68.70;97501.80;1782707;80;26460;-77
2022/07/24 07:19:30;;;;;;;9.10;7.58;;;;;;;20.55;68.14;97510.03;1767027;81;25889;-78
2022/07/24 07:21:58;;;;;;;9.48;7.28;;;;;;;20.63;67.92;97508.68;1782929;80;27414;-77
2022/07/24 07:24:25;;;;;;;9.50;6.83;;;;;;;20.63;67.97;97509.51;1766692;81;25857;-77
2022/07/24 07:26:51;;;;;;;10.28;7.47;;;;;;;20.70;67.98;97513.34;1801715;78;25712;-78
2022/07/24 07:29:18;;;;;;;8.35;5.85;;;;;;;20.73;67.84;97510.05;1797440;78;26267;-79
2022/07/24 07:31:44;;;;;;;6.20;5.50;;;;;;;20.71;67.40;97513.06;1802316;79;25734;-78
2022/07/24 07:34:11;;;;;;;6.30;5.70;;;;;;;20.71;66.92;97512.24;1802374;79;27351;-78
2022/07/24 07:36:38;;;;;;;6.70;5.87;;;;;;;20.74;66.73;97519.94;1802376;79;26957;-78
2022/07/24 07:39:04;;;;;;;6.55;5.78;;;;;;;20.78;66.56;97512.78;1802293;79;25714;-77
2022/07/24 07:41:31;;;;;;;9.18;5.08;;;;;;;20.83;66.32;97523.22;1802389;79;26025;-77
2022/07/24 07:43:58;;;;;;;5.80;5.00;;;;;;;20.95;65.95;97522.13;1802624;79;25646;-77
2022/07/24 07:46:25;;;;;;;8.25;5.90;;;;;;;21.11;65.33;97514.16;1802424;79;28038;-77
2022/07/24 07:48:52;;;;;;;6.58;5.60;;;;;;;21.11;65.33;97514.16;1802346;79;25474;-80
2022/07/24 07:51:19;;;;;;;8.70;4.67;;;;;;;21.28;65.86;97522.94;1802359;79;25676;-79
2022/07/24 07:53:46;;;;;;;7.10;5.12;;;;;;;21.84;62.28;97522.25;1802185;79;26208;-78
2022/07/24 07:56:13;;;;;;;6.35;4.30;;;;;;;21.84;62.28;97522.25;1802362;79;25833;-79
2022/07/24 07:58:39;;;;;;;5.67;4.58;;;;;;;21.81;62.97;97501.37;1802332;79;27373;-78
2022/07/24 08:01:06;;;;;;;5.62;4.45;;;;;;;22.05;62.72;97518.06;1802541;79;25679;-78
2022/07/24 08:03:32;;;;;;;6.22;4.20;;;;;;;22.44;62.04;97518.95;1802429;79;25646;-79
2022/07/24 08:06:01;;;;;;;4.92;3.75;;;;;;;22.90;61.92;97524.98;1802380;79;26623;-79
2022/07/24 08:08:27;;;;;;;6.10;4.20;;;;;;;23.25;61.10;97528.52;1802531;79;25729;-78
2022/07/24 08:10:54;;;;;;;8.93;4.67;;;;;;;23.34;60.10;97521.27;1802300;79;27590;-79
2022/07/24 08:13:21;;;;;;;4.87;3.65;;;;;;;23.51;60.36;97530.50;1802223;79;25790;-78
2022/07/24 08:15:47;;;;;;;4.90;3.80;;;;;;;23.73;59.02;97522.55;1802311;79;25751;-78
2022/07/24 08:18:14;;;;;;;5.50;3.90;;;;;;;23.94;58.13;97519.80;1802402;79;26033;-79
2022/07/24 08:20:43;;;;;;;6.05;4.05;;;;;;;24.11;58.29;97517.13;1802291;79;25796;-79
2022/07/24 08:23:10;;;;;;;6.00;4.22;;;;;;;24.44;57.59;97525.79;1802380;79;28466;-79
2022/07/24 08:25:36;;;;;;;5.47;3.90;;;;;;;24.62;57.16;97526.92;1802213;79;25722;-79
2022/07/24 08:28:04;;;;;;;7.58;4.03;;;;;;;24.92;57.08;97532.52;1802336;79;25680;-79
2022/07/24 08:30:30;;;;;;;5.97;4.40;;;;;;;25.09;55.91;97525.92;1802260;79;26101;-78
2022/07/24 08:32:57;;;;;;;7.10;4.15;;;;;;;25.22;55.89;97530.67;1802128;79;26549;-79
2022/07/24 08:35:23;;;;;;;5.37;3.25;;;;;;;25.48;55.79;97530.45;1799999;79;27536;-79
2022/07/24 08:37:51;;;;;;;4.67;4.05;;;;;;;25.87;55.00;97525.05;1799749;79;25841;-78
2022/07/24 08:40:18;;;;;;;6.70;3.83;;;;;;;25.97;54.20;97526.22;1802199;79;25729;-79
2022/07/24 08:42:44;;;;;;;8.20;3.90;;;;;;;26.04;53.67;97524.45;1829695;78;26008;-79
2022/07/24 08:45:11;;;;;;;4.95;3.90;;;;;;;25.95;52.96;97526.30;1829750;78;26304;-79
2022/07/24 08:47:41;;;;;;;3.75;3.45;;;;;;;25.73;52.74;97538.05;1829844;78;27473;-80
2022/07/24 08:50:09;;;;;;;8.73;4.25;;;;;;;25.57;52.51;97540.83;1829651;76;25748;-78
2022/07/24 08:52:38;;;;;;;6.08;3.90;;;;;;;25.78;52.37;97539.34;1827259;78;25753;-79
2022/07/24 08:55:06;;;;;;;4.78;3.90;;;;;;;26.17;51.68;97538.27;1826941;78;26767;-79
2022/07/24 08:57:33;;;;;;;4.83;3.40;;;;;;;26.62;51.35;97534.27;1826938;78;25734;-80
2022/07/24 08:59:59;;;;;;;6.05;3.80;;;;;;;27.03;50.56;97527.23;1827019;78;28801;-79
2022/07/24 09:02:27;;;;;;;5.22;3.25;;;;;;;27.44;49.88;97529.77;1826689;77;25709;-79
2022/07/24 09:04:59;;;;;;;4.45;3.00;;;;;;;27.67;49.19;97526.41;1827104;78;25721;-81
2022/07/24 09:07:30;;;;;;;4.62;3.40;;;;;;;27.95;48.86;97534.78;1826131;78;26403;-79
2022/07/24 09:10:08;;;;;;;5.05;3.10;;;;;;;27.96;47.96;97530.05;1829629;78;25747;-80
2022/07/24 09:12:41;;;;;;;5.92;3.10;;;;;;;27.98;46.44;97529.17;1825279;78;27362;-79
2022/07/24 09:15:18;;;;;;;4.60;3.17;;;;;;;27.59;46.22;97537.72;1753172;80;26130;-80
2022/07/24 09:17:54;;;;;;;4.70;3.20;;;;;;;27.32;46.93;97540.62;1696952;83;25767;-79
2022/07/24 09:20:24;;;;;;;4.62;3.15;;;;;;;27.51;47.14;97534.31;1639764;86;26635;-82
2022/07/24 09:22:51;;;;;;;6.12;2.90;;;;;;;27.87;46.55;97541.13;1639771;87;25795;-79
2022/07/24 09:25:27;;;;;;;4.45;2.85;;;;;;;28.21;44.88;97534.91;1639817;87;27352;-81
2022/07/24 09:27:57;;;;;;;3.30;2.62;;;;;;;28.42;45.37;97538.45;1639962;87;25845;-83
2022/07/24 09:30:36;;;;;;;3.40;2.72;;;;;;;28.71;44.50;97530.91;1642364;87;25859;-81
2022/07/24 09:33:14;;;;;;;4.70;3.30;;;;;;;28.99;44.09;97539.99;1642404;87;26204;-80
2022/07/24 09:35:47;;;;;;;4.72;2.75;;;;;;;29.26;42.75;97528.28;1624644;88;25948;-81
2022/07/24 09:38:21;;;;;;;7.95;3.45;;;;;;;29.42;42.99;97535.58;1626963;88;28119;-80
2022/07/24 09:40:54;;;;;;;3.87;2.52;;;;;;;29.44;41.07;97538.84;1606697;87;25827;-79
2022/07/24 09:43:28;;;;;;;4.55;2.70;;;;;;;29.19;41.77;97522.42;1605692;88;25789;-79
2022/07/24 09:46:10;;;;;;;5.85;3.50;;;;;;;29.36;41.62;97533.50;1592261;88;26065;-80
2022/07/24 09:48:41;;;;;;;;;;;;;;;29.55;41.72;97536.77;1607644;89;25486;-81
2022/07/24 09:51:14;;;;;;;4.58;2.83;;;;;;;29.76;40.07;97536.86;1609654;87;28212;-80
2022/07/24 09:53:43;;;;;;;3.22;2.77;;;;;;;29.73;41.10;97531.38;1609968;89;25797;-79
2022/07/24 09:56:14;;;;;;;3.02;2.70;;;;;;;29.76;40.28;97528.52;1609973;87;25850;-81
2022/07/24 09:58:52;;;;;;;3.70;2.85;;;;;;;29.86;40.06;97530.92;1557173;90;26761;-80
2022/07/24 10:01:23;;;;;;;3.85;3.27;;;;;;;29.92;39.71;97534.36;1557219;92;25762;-80
2022/07/24 10:03:52;;;;;;;3.73;3.40;;;;;;;29.95;39.65;97527.53;1557445;91;28075;-80
2022/07/24 10:06:25;;;;;;;4.20;3.20;;;;;;;30.01;39.68;97534.59;1556986;90;25709;-80
2022/07/24 10:08:53;;;;;;;4.65;3.50;;;;;;;30.04;39.58;97535.89;1554939;92;25989;-82
2022/07/24 10:11:21;;;;;;;4.30;3.42;;;;;;;30.07;39.69;97530.45;1542297;92;26666;-79
2022/07/24 10:13:49;;;;;;;4.03;3.60;;;;;;;30.17;39.13;97525.10;1546653;92;26642;-80
2022/07/24 10:16:29;;;;;;;3.83;3.47;;;;;;;30.20;39.08;97516.05;1577084;89;27331;-80
2022/07/24 10:19:04;;;;;;;3.75;3.40;;;;;;;30.16;37.88;97517.91;1641486;87;25770;-82
2022/07/24 10:21:34;;;;;;;4.60;3.60;;;;;;;29.96;38.68;97520.03;1584194;90;25854;-80
2022/07/24 10:24:15;;;;;;;4.72;3.40;;;;;;;29.95;38.42;97525.32;1584277;90;26642;-79
2022/07/24 10:26:51;;;;;;;4.12;3.52;;;;;;;29.80;38.12;97511.98;1584236;90;25844;-79
2022/07/24 10:29:22;;;;;;;4.85;4.45;;;;;;;29.69;37.97;97526.27;1587395;89;27516;-79
2022/07/24 10:31:54;;;;;;;4.28;3.87;;;;;;;29.05;37.11;97520.39;1646142;84;25824;-79
2022/07/24 10:34:26;;;;;;;4.72;3.77;;;;;;;28.70;38.09;97512.03;1651227;86;25789;-79
2022/07/24 10:37:20;;;;;;;;;;;;;;;28.76;38.56;97516.84;1648133;85;26038;-79
2022/07/24 10:40:16;;;;;;;4.50;4.03;;;;;;;28.94;38.87;97511.00;1670044;85;25798;-80
2022/07/24 10:43:10;;;;;;;4.97;4.47;;;;;;;29.06;39.22;97508.95;1720315;83;27357;-79
2022/07/24 10:45:44;;;;;;;6.40;4.12;;;;;;;28.64;37.78;97502.22;1720165;83;25953;-79
2022/07/24 10:48:26;;;;;;;5.45;3.85;;;;;;;28.18;39.03;97510.56;1720402;83;25783;-80
2022/07/24 10:51:07;;;;;;;4.55;4.15;;;;;;;28.37;39.26;97508.09;1661759;86;26024;-79
2022/07/24 10:53:43;;;;;;;4.47;4.08;;;;;;;28.43;38.79;97500.66;1629344;86;25978;-82
2022/07/24 10:56:24;;;;;;;4.50;4.10;;;;;;;28.49;39.33;97501.33;1655938;86;28362;-79
2022/07/24 10:59:03;;;;;;;5.03;4.20;;;;;;;28.54;38.04;97496.98;1665402;86;25737;-79
2022/07/24 11:01:44;;;;;;;5.03;4.42;;;;;;;28.55;38.53;97501.40;1665596;86;25819;-80
2022/07/24 11:04:24;;;;;;;4.47;4.08;;;;;;;28.54;39.49;97495.59;1665747;86;26058;-79
2022/07/24 11:06:55;;;;;;;4.75;4.25;;;;;;;28.53;39.22;97497.55;1665472;86;25534;-79
2022/07/24 11:09:25;;;;;;;4.97;4.47;;;;;;;28.44;38.39;97498.70;1665890;86;27399;-79
2022/07/24 11:11:57;;;;;;;5.05;4.47;;;;;;;28.45;39.14;97508.09;1634560;85;25518;-79
2022/07/24 11:14:40;;;;;;;;;;;;;;;28.56;39.06;97500.26;1633117;87;25813;-80
2022/07/24 11:17:40;;;;;;;5.67;4.47;;;;;;;28.55;39.63;97495.27;1639303;87;26086;-79
2022/07/24 11:20:16;;;;;;;4.80;4.05;;;;;;;28.62;39.54;97500.33;1639375;87;25747;-79
2022/07/24 11:22:48;;;;;;;6.55;3.98;;;;;;;28.72;38.20;97497.25;1552506;92;28924;-78
2022/07/24 11:25:27;;;;;;;5.37;4.33;;;;;;;28.71;39.38;97492.02;1568945;91;25867;-79
2022/07/24 11:27:58;;;;;;;4.70;4.15;;;;;;;28.86;38.96;97487.41;1600367;89;25808;-78
2022/07/24 11:30:30;;;;;;;4.92;4.08;;;;;;;29.10;38.21;97482.72;1579374;90;26947;-79